Victory, Kentucky
Current Conditions -  °F | °C
As of 9:53 AM on Thursday 30 Oct 2014 (Local Time) from KLOZ Reporting Station
Clear Clear  
Wind Chill: 47°   Ceiling: Unl
Heat Index: 47°   Visibility: 10mi
Dew Point: 38°   Wind: 0mph
Humidity: 71%   Direction: NA
Pressure: 30.16"   Gusts: NA
Location:  37.2328°N, 84.1595°W
Report Text: KLOZ 301353Z AUTO 00000KT 10SM CLR 08/03 A3016 RMK AO2 SLP213 T00830033
Loading
Personal Weather Stations






























Interactive Weather Map
Tropical Storm Tracking
New forecast layout! Learn more

10-Day Weather Forecast

Advertisements
Track Severe Weather on mobile